Tekonsha, Michigan
Current Conditions -  °F | °C
As of 3:54 PM on Thursday 18 Dec 2014 (Local Time) from KRMY Reporting Station
Overcast Overcast  
Wind Chill: 21°   Ceiling: 1400
Heat Index: 29°   Visibility: 10mi
Dew Point: 26°   Wind: 8mph
Humidity: 86%   Direction: 280°W
Pressure: 30.16"   Gusts: NA
Location:  42.09°N, 84.99°W
Report Text: KRMY 182054Z AUTO 28007KT 10SM OVC014 M02/M04 A3016 RMK AO2 T10161036
Loading
Personal Weather Stations






























Interactive Weather Map New forecast layout! Learn more

10-Day Weather Forecast

Advertisements
Track Severe Weather on mobile